Time;durP1;ratioP1;P1;durP2;ratioP2;P2;SDS_P1;SDS_P2;PMS_P1;PMS_P2;Temp;Humidity;BMP_temperature;BMP_pressure;BME280_temperature;BME280_humidity;BME280_pressure;Samples;Min_cycle;Max_cycle;Signal;HPM_P1;HPM_P2
2022/09/27 00:01:47;;;;;;;13.90;12.57;;;;;;;18.60;100.00;98407.78;5113174;28;20198;-55
2022/09/27 00:04:14;;;;;;;16.33;13.18;;;;;;;18.60;100.00;98404.31;5113047;28;20226;-54
2022/09/27 00:06:41;;;;;;;13.73;12.52;;;;;;;18.59;100.00;98406.09;5113406;28;20198;-58
2022/09/27 00:09:07;;;;;;;16.92;13.52;;;;;;;18.56;100.00;98403.66;5113269;28;20199;-58
2022/09/27 00:11:37;;;;;;;14.32;12.80;;;;;;;18.52;100.00;98394.34;5113222;28;20591;-58
2022/09/27 00:14:04;;;;;;;14.30;12.98;;;;;;;18.47;100.00;98391.25;5113224;28;20206;-58
2022/09/27 00:16:34;;;;;;;14.25;13.05;;;;;;;18.29;100.00;98380.38;5112019;28;21290;-58
2022/09/27 00:19:02;;;;;;;14.47;13.23;;;;;;;18.37;100.00;98406.91;5113126;28;20587;-57
2022/09/27 00:21:31;;;;;;;13.43;12.23;;;;;;;18.30;100.00;98394.34;5113020;28;20689;-58
2022/09/27 00:23:58;;;;;;;14.20;12.80;;;;;;;18.28;100.00;98394.50;5112924;28;20262;-58
2022/09/27 00:26:26;;;;;;;13.60;12.40;;;;;;;18.29;100.00;98395.31;5112872;28;20198;-58
2022/09/27 00:28:53;;;;;;;13.07;11.98;;;;;;;18.25;100.00;98386.03;5112779;28;20205;-59
2022/09/27 00:31:22;;;;;;;12.50;11.37;;;;;;;18.26;100.00;98387.69;5113027;28;20217;-60
2022/09/27 00:33:53;;;;;;;12.57;11.48;;;;;;;18.24;100.00;98387.81;5112557;28;20191;-59
2022/09/27 00:36:22;;;;;;;13.23;12.07;;;;;;;18.25;100.00;98399.16;5112547;28;20205;-55
2022/09/27 00:38:49;;;;;;;13.03;11.60;;;;;;;18.23;100.00;98406.31;5113249;28;20561;-59
2022/09/27 00:41:19;;;;;;;12.50;11.40;;;;;;;18.18;100.00;98397.94;5112467;28;20289;-58
2022/09/27 00:43:49;;;;;;;12.38;11.23;;;;;;;18.21;100.00;98400.31;5112490;28;20313;-58
2022/09/27 00:46:22;;;;;;;12.30;11.40;;;;;;;18.25;100.00;98389.47;5112366;28;20205;-55
2022/09/27 00:49:03;;;;;;;12.45;11.45;;;;;;;18.26;100.00;98388.53;5112627;28;20194;-55
2022/09/27 00:51:34;;;;;;;12.90;11.90;;;;;;;18.28;100.00;98383.16;5112427;28;20230;-55
2022/09/27 00:54:01;;;;;;;13.20;12.10;;;;;;;18.24;100.00;98372.03;5112308;28;20201;-58
2022/09/27 00:56:31;;;;;;;12.07;11.23;;;;;;;18.22;100.00;98373.13;5112251;28;20220;-59
2022/09/27 00:59:04;;;;;;;12.90;11.87;;;;;;;18.27;100.00;98376.22;5112483;28;20750;-55
2022/09/27 01:01:30;;;;;;;12.37;11.47;;;;;;;18.26;100.00;98375.41;5112090;28;20290;-58
2022/09/27 01:04:05;;;;;;;12.18;11.27;;;;;;;18.22;100.00;98360.81;5112049;28;20214;-58
2022/09/27 01:06:32;;;;;;;13.20;11.73;;;;;;;18.30;100.00;98373.34;5111935;28;20674;-55
2022/09/27 01:08:59;;;;;;;12.48;11.38;;;;;;;18.22;100.00;98337.19;5112187;28;20207;-55
2022/09/27 01:11:36;;;;;;;12.43;11.23;;;;;;;18.27;100.00;98345.56;5112143;28;20197;-55
2022/09/27 01:14:35;;;;;;;11.63;10.80;;;;;;;18.16;100.00;98331.59;5112203;28;20670;-59
2022/09/27 01:17:13;;;;;;;11.50;10.63;;;;;;;18.27;100.00;98365.72;5111841;28;20195;-59
2022/09/27 01:20:16;;;;;;;11.30;10.43;;;;;;;18.24;100.00;98376.47;5112050;28;20202;-58
2022/09/27 01:22:54;;;;;;;12.23;11.00;;;;;;;18.10;100.00;98373.13;5105266;28;20205;-58
2022/09/27 01:25:45;;;;;;;11.07;10.17;;;;;;;18.14;100.00;98371.09;5111577;28;20224;-59
2022/09/27 01:28:21;;;;;;;11.27;10.30;;;;;;;18.10;100.00;98375.75;5111820;28;20194;-59
2022/09/27 01:30:56;;;;;;;11.80;10.70;;;;;;;18.09;100.00;98374.06;5111729;28;20198;-59
2022/09/27 01:33:31;;;;;;;12.23;11.10;;;;;;;17.97;100.00;98350.53;5111689;28;20564;-56
2022/09/27 01:36:12;;;;;;;11.13;10.13;;;;;;;18.01;100.00;98365.97;5111543;28;20190;-55
2022/09/27 01:38:47;;;;;;;11.33;10.37;;;;;;;18.00;100.00;98369.53;5111543;28;20195;-55
2022/09/27 01:41:26;;;;;;;12.80;10.47;;;;;;;17.91;100.00;98372.03;5111456;28;20212;-54
2022/09/27 01:43:59;;;;;;;10.23;9.43;;;;;;;17.81;100.00;98368.44;5111225;28;20761;-55
2022/09/27 01:46:33;;;;;;;11.60;10.60;;;;;;;17.89;100.00;98368.69;5111164;28;20197;-59
2022/09/27 01:49:07;;;;;;;10.60;9.80;;;;;;;17.72;100.00;98338.47;5111489;28;20198;-58
2022/09/27 01:51:38;;;;;;;10.67;9.70;;;;;;;18.00;100.00;98366.06;5111177;28;20190;-55
2022/09/27 01:54:07;;;;;;;10.10;9.30;;;;;;;18.02;100.00;98357.13;5110668;28;20202;-54
2022/09/27 01:56:38;;;;;;;10.30;9.60;;;;;;;18.13;100.00;98362.38;5111002;28;20201;-55
2022/09/27 01:59:10;;;;;;;10.83;9.67;;;;;;;18.11;100.00;98366.91;5111068;28;20704;-58
2022/09/27 02:01:42;;;;;;;12.80;9.43;;;;;;;18.16;100.00;98363.09;5110947;28;20198;-59
2022/09/27 02:04:13;;;;;;;10.17;9.47;;;;;;;18.16;100.00;98361.31;5110763;28;20226;-54
2022/09/27 02:06:46;;;;;;;11.43;10.30;;;;;;;18.21;100.00;98364.41;5110979;28;20237;-54
2022/09/27 02:09:17;;;;;;;12.20;9.80;;;;;;;18.20;100.00;98344.34;5110693;28;20200;-55
2022/09/27 02:11:51;;;;;;;10.67;9.63;;;;;;;18.08;100.00;98319.88;5110828;28;20222;-58
2022/09/27 02:14:23;;;;;;;10.18;9.50;;;;;;;18.24;100.00;98329.19;5110891;28;20195;-58
2022/09/27 02:16:53;;;;;;;9.68;8.85;;;;;;;18.17;100.00;98299.13;5110849;28;20578;-58
2022/09/27 02:19:32;;;;;;;10.03;9.10;;;;;;;18.26;100.00;98327.28;5110312;28;20285;-59
2022/09/27 02:22:07;;;;;;;10.45;9.45;;;;;;;18.16;100.00;98326.34;5110603;28;20190;-58
2022/09/27 02:24:41;;;;;;;10.27;9.53;;;;;;;18.03;100.00;98332.53;5110391;28;20265;-55
2022/09/27 02:27:14;;;;;;;10.23;9.32;;;;;;;17.91;100.00;98328.25;5110470;28;20287;-55
2022/09/27 02:29:49;;;;;;;10.43;9.63;;;;;;;17.87;100.00;98337.31;5110364;28;20293;-54
2022/09/27 02:32:18;;;;;;;10.32;9.52;;;;;;;17.91;100.00;98353.66;5110711;28;20206;-58
2022/09/27 02:34:46;;;;;;;10.73;9.97;;;;;;;17.83;100.00;98335.88;5110284;28;20230;-58
2022/09/27 02:37:13;;;;;;;10.13;9.20;;;;;;;17.98;100.00;98365.34;5110459;28;20195;-55
2022/09/27 02:39:40;;;;;;;10.20;9.23;;;;;;;18.03;100.00;98371.94;5110344;28;20202;-55
2022/09/27 02:42:07;;;;;;;9.70;8.90;;;;;;;18.07;100.00;98378.59;5110227;28;20666;-55
2022/09/27 02:44:34;;;;;;;10.13;9.23;;;;;;;17.90;100.00;98352.81;5110177;28;20258;-54
2022/09/27 02:47:46;;;;;;;10.27;9.37;;;;;;;17.99;100.00;98374.91;5110406;28;20199;-59
2022/09/27 02:50:35;;;;;;;10.10;9.30;;;;;;;18.04;100.00;98380.66;5092100;28;20667;-59
2022/09/27 02:53:10;;;;;;;11.47;10.57;;;;;;;18.06;100.00;98361.16;5110158;28;20198;-59
2022/09/27 02:55:49;;;;;;;10.47;9.67;;;;;;;18.07;100.00;98356.75;5110225;28;20273;-58
2022/09/27 02:58:25;;;;;;;11.93;10.87;;;;;;;17.86;100.00;98348.75;5110043;28;20292;-59
2022/09/27 03:01:02;;;;;;;12.17;11.13;;;;;;;17.90;100.00;98359.88;5110226;28;20566;-59
2022/09/27 03:03:37;;;;;;;10.53;9.73;;;;;;;17.81;100.00;98356.16;5110368;28;20638;-55
2022/09/27 03:06:07;;;;;;;10.90;9.90;;;;;;;17.76;100.00;98355.66;5109305;28;20225;-55
2022/09/27 03:08:34;;;;;;;10.17;9.37;;;;;;;17.71;100.00;98347.31;5110006;28;20211;-58
2022/09/27 03:11:01;;;;;;;10.87;9.97;;;;;;;17.61;100.00;98356.78;5109908;28;20201;-58
2022/09/27 03:13:28;;;;;;;10.57;9.80;;;;;;;17.58;100.00;98343.94;5109763;28;20592;-57
2022/09/27 03:15:55;;;;;;;11.20;10.40;;;;;;;17.59;100.00;98332.47;5109940;28;20193;-60
2022/09/27 03:18:22;;;;;;;11.20;10.30;;;;;;;17.51;100.00;98332.19;5110158;28;20194;-60
2022/09/27 03:20:52;;;;;;;11.47;10.50;;;;;;;17.36;100.00;98324.56;5110121;28;20236;-60
2022/09/27 03:23:19;;;;;;;12.07;10.83;;;;;;;17.47;100.00;98342.13;5110064;28;20194;-57
2022/09/27 03:25:46;;;;;;;12.83;11.60;;;;;;;17.50;100.00;98320.88;5109632;28;20229;-54
2022/09/27 03:28:13;;;;;;;14.07;11.73;;;;;;;17.48;100.00;98321.97;5109644;28;20195;-59
2022/09/27 03:30:40;;;;;;;13.10;11.77;;;;;;;17.50;100.00;98322.66;5109825;28;20198;-59
2022/09/27 03:33:09;;;;;;;12.97;11.83;;;;;;;17.47;100.00;98329.00;5109351;28;20194;-55
2022/09/27 03:35:36;;;;;;;12.00;11.00;;;;;;;17.44;100.00;98350.22;5109381;28;20234;-55
2022/09/27 03:38:06;;;;;;;12.67;11.53;;;;;;;17.40;100.00;98331.22;5109323;28;20201;-55
2022/09/27 03:40:33;;;;;;;12.43;11.10;;;;;;;17.36;100.00;98319.31;5109260;28;20571;-55
2022/09/27 03:43:00;;;;;;;14.17;11.23;;;;;;;17.33;100.00;98311.66;5109791;28;20198;-55
2022/09/27 03:45:27;;;;;;;12.43;11.40;;;;;;;17.34;100.00;98308.09;5109380;28;20309;-55
2022/09/27 03:47:54;;;;;;;13.53;10.83;;;;;;;17.39;100.00;98307.72;5109733;28;20194;-55
2022/09/27 03:50:21;;;;;;;13.03;11.17;;;;;;;17.33;100.00;98295.09;5109615;28;20562;-59
2022/09/27 03:52:48;;;;;;;12.87;11.33;;;;;;;17.38;100.00;98304.28;5109535;28;20199;-55
2022/09/27 03:55:16;;;;;;;11.63;10.50;;;;;;;17.36;100.00;98298.34;5109425;28;20205;-55
2022/09/27 03:57:45;;;;;;;11.50;10.60;;;;;;;17.36;100.00;98303.59;5109481;28;20199;-55
2022/09/27 04:00:13;;;;;;;13.17;10.77;;;;;;;17.37;100.00;98296.56;5109317;28;20195;-55
2022/09/27 04:02:40;;;;;;;11.73;10.17;;;;;;;17.34;100.00;98305.47;5109213;28;20209;-54
2022/09/27 04:05:07;;;;;;;11.60;10.23;;;;;;;17.35;100.00;98309.78;5109384;28;20214;-59
2022/09/27 04:07:34;;;;;;;11.07;9.90;;;;;;;17.34;100.00;98305.47;5109291;28;20205;-59
2022/09/27 04:10:01;;;;;;;10.67;9.80;;;;;;;17.32;100.00;98299.50;5109433;28;20190;-55
2022/09/27 04:12:29;;;;;;;11.30;10.30;;;;;;;17.39;100.00;98284.97;5109429;28;20669;-54
2022/09/27 04:14:56;;;;;;;13.00;10.70;;;;;;;17.46;100.00;98276.66;5109664;28;20195;-54
2022/09/27 04:17:24;;;;;;;11.40;10.30;;;;;;;17.42;100.00;98289.16;5111651;28;20281;-54
2022/09/27 04:19:51;;;;;;;12.90;10.30;;;;;;;17.39;100.00;98277.09;5113040;28;20637;-55
2022/09/27 04:22:18;;;;;;;12.07;10.87;;;;;;;17.36;100.00;98282.59;5112831;28;20216;-55
2022/09/27 04:24:45;;;;;;;10.90;9.87;;;;;;;17.41;100.00;98282.22;5112865;28;20213;-55
2022/09/27 04:27:12;;;;;;;11.53;10.50;;;;;;;17.42;100.00;98279.50;5112624;28;20204;-55
2022/09/27 04:29:44;;;;;;;11.73;10.60;;;;;;;17.43;100.00;98291.66;5112813;28;20201;-55
2022/09/27 04:32:11;;;;;;;15.83;11.77;;;;;;;17.41;100.00;98293.56;5112711;28;20209;-56
2022/09/27 04:37:22;;;;;;;12.00;10.80;;;;;;;17.56;100.00;98290.72;5111583;28;20210;-58
2022/09/27 04:39:49;;;;;;;18.57;11.60;;;;;;;17.66;100.00;98303.06;5111469;28;20198;-58
2022/09/27 04:42:17;;;;;;;12.50;11.30;;;;;;;17.64;100.00;98288.38;5111250;28;20206;-59
2022/09/27 04:44:46;;;;;;;12.70;11.27;;;;;;;17.71;100.00;98286.97;5111223;28;20199;-58
2022/09/27 04:47:17;;;;;;;13.23;11.90;;;;;;;17.68;100.00;98274.06;5111201;27;20269;-58
2022/09/27 04:49:44;;;;;;;12.70;11.47;;;;;;;17.82;100.00;98281.72;5112252;28;20571;-58
2022/09/27 04:52:11;;;;;;;13.90;12.53;;;;;;;17.86;100.00;98275.25;5112584;28;20198;-57
2022/09/27 04:54:38;;;;;;;13.50;11.60;;;;;;;17.99;100.00;98273.34;5112175;28;20201;-58
2022/09/27 04:57:04;;;;;;;12.20;10.70;;;;;;;18.06;100.00;98274.53;5112247;28;20248;-58
2022/09/27 04:59:31;;;;;;;15.33;11.60;;;;;;;18.01;100.00;98266.19;5111949;28;20567;-58
2022/09/27 05:02:00;;;;;;;17.43;12.10;;;;;;;17.97;100.00;98264.75;5112234;28;20205;-58
2022/09/27 05:04:27;;;;;;;15.63;11.07;;;;;;;18.02;100.00;98264.41;5112259;28;20205;-58
2022/09/27 05:06:54;;;;;;;15.33;11.63;;;;;;;18.11;100.00;98280.25;5111987;28;20246;-59
2022/09/27 05:09:21;;;;;;;15.37;12.17;;;;;;;18.19;100.00;98281.44;5111596;28;20217;-56
2022/09/27 05:11:48;;;;;;;14.03;11.97;;;;;;;18.26;100.00;98280.00;5111954;28;20205;-56
2022/09/27 05:14:15;;;;;;;17.80;11.97;;;;;;;18.23;100.00;98267.09;5111778;28;20704;-56
2022/09/27 05:16:42;;;;;;;19.33;12.40;;;;;;;18.33;100.00;98268.88;5112116;28;20190;-56
2022/09/27 05:19:10;;;;;;;15.20;11.20;;;;;;;18.41;100.00;98279.59;5111271;28;20313;-55
2022/09/27 05:21:37;;;;;;;12.90;10.82;;;;;;;18.57;100.00;98283.63;5111713;28;20286;-56
2022/09/27 05:24:04;;;;;;;16.67;11.90;;;;;;;19.00;100.00;98283.59;5111624;28;20212;-55
2022/09/27 05:26:31;;;;;;;16.63;12.23;;;;;;;19.27;100.00;98278.69;5111316;28;20227;-55
2022/09/27 05:28:58;;;;;;;14.50;11.77;;;;;;;20.05;100.00;98269.41;5111361;28;20574;-56
2022/09/27 05:31:25;;;;;;;16.15;11.20;;;;;;;20.83;100.00;98255.41;5111583;28;20206;-56
2022/09/27 05:33:52;;;;;;;15.60;10.85;;;;;;;21.26;100.00;98252.31;5111441;28;20254;-56
2022/09/27 05:36:22;;;;;;;12.63;10.23;;;;;;;21.05;100.00;98262.19;5111149;28;20209;-59
2022/09/27 05:38:49;;;;;;;11.30;10.18;;;;;;;20.99;100.00;98269.66;5111308;28;20294;-60
2022/09/27 05:41:17;;;;;;;18.00;11.45;;;;;;;20.75;100.00;98269.28;5111215;28;20190;-59
2022/09/27 05:43:45;;;;;;;21.55;10.63;;;;;;;20.30;100.00;98271.56;5111406;28;20289;-60
2022/09/27 05:46:12;;;;;;;11.43;10.13;;;;;;;19.90;100.00;98250.47;5109806;28;20430;-59
2022/09/27 05:48:39;;;;;;;14.10;10.13;;;;;;;19.78;100.00;98246.28;5110030;28;20187;-60
2022/09/27 05:51:06;;;;;;;12.77;9.70;;;;;;;19.82;100.00;98240.63;5109920;28;20662;-60
2022/09/27 05:53:35;;;;;;;13.43;9.65;;;;;;;19.81;100.00;98252.13;5109587;28;20203;-59
2022/09/27 05:56:03;;;;;;;11.73;10.25;;;;;;;19.69;100.00;98263.72;5109931;28;20218;-59
2022/09/27 05:58:30;;;;;;;14.70;10.50;;;;;;;19.66;100.00;98263.13;5109982;28;20205;-60
2022/09/27 06:00:57;;;;;;;13.93;10.07;;;;;;;19.71;100.00;98255.69;5109823;28;20186;-59
2022/09/27 06:03:23;;;;;;;12.23;10.88;;;;;;;19.69;100.00;98232.13;5109463;28;20285;-59
2022/09/27 06:05:50;;;;;;;12.77;10.90;;;;;;;19.72;100.00;98244.19;5109413;28;20214;-60
2022/09/27 06:08:19;;;;;;;11.77;9.93;;;;;;;19.57;100.00;98244.53;5109286;28;20285;-58
2022/09/27 06:10:47;;;;;;;20.27;11.23;;;;;;;19.56;100.00;98247.28;5109577;28;20685;-56
2022/09/27 06:13:16;;;;;;;12.02;10.40;;;;;;;19.64;100.00;98239.56;5109538;28;20319;-57
2022/09/27 06:15:45;;;;;;;17.65;10.88;;;;;;;19.65;100.00;98240.41;5109716;28;20248;-56
2022/09/27 06:18:15;;;;;;;15.88;11.80;;;;;;;19.64;100.00;98233.50;5110666;28;20756;-56
2022/09/27 06:20:42;;;;;;;16.80;10.90;;;;;;;19.82;100.00;98242.41;5110331;28;20195;-56
2022/09/27 06:23:12;;;;;;;22.73;12.82;;;;;;;20.03;100.00;98237.91;5110440;28;20198;-57
2022/09/27 06:25:39;;;;;;;15.00;11.90;;;;;;;20.16;100.00;98235.88;5110498;28;20226;-57
2022/09/27 06:28:08;;;;;;;18.77;13.30;;;;;;;20.27;100.00;98235.75;5110791;28;20590;-57
2022/09/27 06:30:38;;;;;;;21.02;14.85;;;;;;;20.46;100.00;98260.50;5110804;28;20193;-53
2022/09/27 06:33:05;;;;;;;15.07;12.07;;;;;;;20.53;100.00;98270.38;5110720;28;20221;-53
2022/09/27 06:35:35;;;;;;;20.42;11.82;;;;;;;20.80;100.00;98290.78;5110096;28;20222;-57
2022/09/27 06:38:03;;;;;;;20.85;11.25;;;;;;;20.73;100.00;98275.66;5110618;28;20670;-57
2022/09/27 06:40:30;;;;;;;12.93;9.80;;;;;;;20.65;100.00;98271.09;5110276;28;20221;-54
2022/09/27 06:43:02;;;;;;;13.43;9.75;;;;;;;20.74;100.00;98283.44;5110210;28;20226;-56
2022/09/27 06:45:34;;;;;;;14.38;10.65;;;;;;;20.74;100.00;98283.44;5110107;28;20198;-55
2022/09/27 06:48:01;;;;;;;16.33;10.90;;;;;;;20.69;100.00;98269.81;5110734;28;20198;-55
2022/09/27 06:50:28;;;;;;;15.30;11.95;;;;;;;20.62;100.00;98260.81;5110043;28;20200;-55
2022/09/27 06:52:55;;;;;;;11.93;10.93;;;;;;;20.51;100.00;98255.66;5110122;28;20203;-55
2022/09/27 06:55:22;;;;;;;12.18;10.70;;;;;;;20.60;100.00;98262.75;5109804;28;20197;-55
2022/09/27 07:00:35;;;;;;;14.88;10.98;;;;;;;21.38;100.00;98264.38;5109564;28;20197;-55
2022/09/27 07:03:02;;;;;;;15.73;9.68;;;;;;;21.75;100.00;98269.69;5110034;28;20195;-56
2022/09/27 07:05:30;;;;;;;10.10;9.20;;;;;;;22.74;100.00;98268.03;5109694;28;20209;-54
2022/09/27 07:07:57;;;;;;;10.52;8.43;;;;;;;24.09;94.26;98278.13;5109845;28;20286;-55
2022/09/27 07:10:26;;;;;;;10.23;9.25;;;;;;;25.41;88.38;98287.00;5109667;28;20199;-52
2022/09/27 07:12:53;;;;;;;9.50;7.75;;;;;;;26.01;84.49;98284.75;5109822;28;20198;-52
2022/09/27 07:15:21;;;;;;;11.52;8.07;;;;;;;25.47;84.81;98270.41;5109375;28;20277;-55
2022/09/27 07:17:56;;;;;;;10.57;8.40;;;;;;;25.66;84.92;98277.22;5109677;28;20205;-53
2022/09/27 07:20:23;;;;;;;10.82;7.65;;;;;;;26.16;83.09;98276.91;5109732;28;20194;-53
2022/09/27 07:22:50;;;;;;;8.95;7.30;;;;;;;26.26;82.76;98268.69;5109421;28;20194;-52
2022/09/27 07:25:17;;;;;;;8.23;7.43;;;;;;;25.32;85.72;98270.25;5109669;28;20198;-53
2022/09/27 07:27:44;;;;;;;10.13;9.05;;;;;;;25.18;86.37;98276.22;5109276;28;20222;-53
2022/09/27 07:30:12;;;;;;;8.05;7.47;;;;;;;24.82;87.97;98264.28;5109078;28;20194;-52
2022/09/27 07:32:39;;;;;;;9.32;7.03;;;;;;;24.87;87.24;98260.13;5108634;28;20314;-53
2022/09/27 07:35:09;;;;;;;9.75;7.55;;;;;;;24.61;87.76;98243.50;5109316;28;20641;-57
2022/09/27 07:37:37;;;;;;;8.10;7.43;;;;;;;24.52;86.17;98229.38;5109410;28;20683;-52
2022/09/27 07:40:08;;;;;;;7.82;7.18;;;;;;;24.71;85.30;98251.31;5109640;28;20248;-53
2022/09/27 07:42:36;;;;;;;8.75;7.88;;;;;;;24.56;85.39;98265.22;5109969;28;20204;-52
2022/09/27 07:45:04;;;;;;;15.43;8.50;;;;;;;24.32;85.92;98267.81;5109596;28;20195;-52
2022/09/27 07:47:31;;;;;;;10.88;7.82;;;;;;;24.46;85.48;98256.59;5109334;28;20556;-51
2022/09/27 07:49:58;;;;;;;8.40;7.53;;;;;;;24.44;85.73;98263.88;5109397;28;20194;-53
2022/09/27 07:52:26;;;;;;;7.15;6.45;;;;;;;24.19;85.49;98257.63;5111889;28;20301;-51
2022/09/27 07:54:53;;;;;;;7.10;6.40;;;;;;;24.55;84.46;98274.16;5113247;28;20190;-53
2022/09/27 07:57:23;;;;;;;8.27;7.50;;;;;;;24.27;84.59;98264.00;5113414;28;20617;-53
2022/09/27 07:59:50;;;;;;;7.03;6.63;;;;;;;24.01;85.94;98264.03;5113416;28;20266;-52
2022/09/27 08:02:18;;;;;;;7.35;6.75;;;;;;;23.89;85.54;98256.34;5113133;28;20201;-54
2022/09/27 08:04:45;;;;;;;8.00;6.78;;;;;;;24.10;85.03;98263.88;5113271;28;20263;-55
2022/09/27 08:07:13;;;;;;;7.13;6.57;;;;;;;24.29;85.08;98268.13;5113050;28;20745;-52
2022/09/27 08:09:41;;;;;;;6.97;6.25;;;;;;;24.06;84.99;98256.41;5113041;28;20195;-53
2022/09/27 08:12:09;;;;;;;10.32;6.22;;;;;;;24.15;83.96;98256.28;5113151;28;20230;-52
2022/09/27 08:14:36;;;;;;;7.10;6.50;;;;;;;24.09;84.07;98259.56;5113101;28;20194;-51
2022/09/27 08:17:03;;;;;;;7.03;6.47;;;;;;;24.11;84.49;98249.66;5112973;28;20226;-51
2022/09/27 08:19:30;;;;;;;7.88;7.13;;;;;;;24.13;84.47;98252.16;5112751;28;20199;-54
2022/09/27 08:21:57;;;;;;;6.72;6.15;;;;;;;23.88;85.64;98254.69;5112733;28;20194;-55
2022/09/27 08:24:24;;;;;;;9.25;7.18;;;;;;;23.76;86.31;98252.47;5113000;28;20221;-54
2022/09/27 08:26:53;;;;;;;7.38;6.75;;;;;;;23.99;86.65;98250.94;5112415;28;20317;-54
2022/09/27 08:29:20;;;;;;;7.32;6.72;;;;;;;23.86;86.83;98259.31;5112258;28;20290;-55
2022/09/27 08:31:47;;;;;;;7.18;6.68;;;;;;;23.67;86.83;98254.25;5112710;28;20712;-54
2022/09/27 08:34:13;;;;;;;8.35;6.90;;;;;;;23.43;88.08;98248.78;5112507;28;20321;-54
2022/09/27 08:36:43;;;;;;;7.72;7.13;;;;;;;23.18;87.88;98216.84;5112560;28;20283;-55
2022/09/27 08:39:09;;;;;;;7.93;7.00;;;;;;;23.18;88.77;98256.53;5112975;28;20578;-53
2022/09/27 08:41:42;;;;;;;6.68;6.18;;;;;;;23.16;89.17;98255.03;5112337;28;20213;-53
2022/09/27 08:44:18;;;;;;;7.75;7.15;;;;;;;22.96;89.45;98245.63;5112316;27;20248;-53
2022/09/27 08:46:54;;;;;;;7.22;6.50;;;;;;;22.99;88.54;98243.50;5112308;28;20218;-57
2022/09/27 08:49:26;;;;;;;7.13;6.60;;;;;;;23.10;88.43;98230.03;5112508;28;20202;-57
2022/09/27 08:51:56;;;;;;;9.27;6.47;;;;;;;23.27;87.98;98219.53;5112340;28;20195;-61
2022/09/27 08:54:28;;;;;;;9.38;7.18;;;;;;;23.53;87.78;98228.34;5112193;28;20226;-61
2022/09/27 08:57:02;;;;;;;6.95;6.45;;;;;;;23.64;86.40;98225.41;5112385;28;20190;-60
2022/09/27 08:59:35;;;;;;;6.80;6.32;;;;;;;23.91;85.70;98223.56;5112072;28;20205;-62
2022/09/27 09:02:04;;;;;;;7.95;7.28;;;;;;;23.83;85.43;98219.03;5105371;28;20293;-62
2022/09/27 09:04:36;;;;;;;7.13;6.50;;;;;;;24.00;85.10;98209.34;5109171;28;20198;-62
2022/09/27 09:07:15;;;;;;;10.05;6.85;;;;;;;24.12;84.27;98216.00;5112128;27;20679;-62
2022/09/27 09:09:52;;;;;;;7.45;6.75;;;;;;;24.26;83.58;98206.66;5112106;28;20277;-57
2022/09/27 09:12:47;;;;;;;7.00;6.50;;;;;;;24.27;83.40;98211.75;5111913;28;20619;-57
2022/09/27 09:15:30;;;;;;;6.90;6.40;;;;;;;24.20;83.38;98198.31;5110593;28;20252;-63
2022/09/27 09:18:21;;;;;;;7.95;7.03;;;;;;;24.38;81.96;98202.69;5110142;28;20273;-62
2022/09/27 09:21:07;;;;;;;6.88;6.28;;;;;;;24.48;80.65;98206.84;5111867;28;20209;-57
2022/09/27 09:24:00;;;;;;;6.30;5.97;;;;;;;24.68;80.79;98207.38;5111721;28;20763;-57
2022/09/27 09:26:35;;;;;;;9.15;5.95;;;;;;;24.79;81.83;98195.59;5111504;28;20268;-58
2022/09/27 09:29:15;;;;;;;7.28;6.68;;;;;;;24.79;79.87;98174.38;5110751;28;20190;-55
2022/09/27 09:31:51;;;;;;;6.47;5.97;;;;;;;24.76;79.50;98177.34;5109556;28;20194;-55
2022/09/27 09:34:23;;;;;;;7.68;7.13;;;;;;;24.76;79.95;98174.69;5109114;28;20229;-59
2022/09/27 09:36:55;;;;;;;7.53;6.93;;;;;;;24.79;79.63;98163.75;5110059;28;20195;-59
2022/09/27 09:39:26;;;;;;;7.78;6.32;;;;;;;24.96;79.41;98155.63;5107790;28;20198;-58
2022/09/27 09:42:08;;;;;;;7.53;6.85;;;;;;;24.95;78.55;98147.81;5107967;28;20191;-59
2022/09/27 09:44:44;;;;;;;7.97;7.28;;;;;;;25.11;79.41;98153.13;5110680;28;20212;-60
2022/09/27 09:47:20;;;;;;;7.30;6.85;;;;;;;24.98;79.07;98150.16;5110899;28;20278;-59
2022/09/27 09:49:53;;;;;;;7.70;6.85;;;;;;;24.98;78.40;98144.84;5111612;28;20670;-59
2022/09/27 09:52:24;;;;;;;7.57;7.00;;;;;;;25.15;77.86;98135.88;5111305;28;20295;-58
2022/09/27 09:54:57;;;;;;;8.20;7.35;;;;;;;25.07;78.35;98132.38;5111449;28;20689;-58
2022/09/27 09:57:27;;;;;;;8.23;7.18;;;;;;;25.14;77.52;98126.22;5111146;28;20195;-59
2022/09/27 09:59:59;;;;;;;7.78;7.00;;;;;;;25.12;77.81;98117.59;5110431;28;20605;-60
2022/09/27 10:02:34;;;;;;;7.25;6.85;;;;;;;25.08;78.50;98110.97;5111307;28;20645;-58
2022/09/27 10:05:02;;;;;;;7.32;6.65;;;;;;;24.89;78.59;98119.28;5110089;28;20198;-59
2022/09/27 10:07:31;;;;;;;6.35;6.05;;;;;;;24.95;77.50;98119.44;5110379;28;20241;-59
2022/09/27 10:10:02;;;;;;;6.93;6.50;;;;;;;24.95;77.39;98121.28;5110838;28;20201;-59
2022/09/27 10:12:29;;;;;;;11.45;9.88;;;;;;;24.93;76.65;98121.47;5110795;28;20226;-59
2022/09/27 10:15:00;;;;;;;18.38;13.68;;;;;;;24.93;76.63;98116.16;5110288;28;20199;-58
2022/09/27 10:17:36;;;;;;;8.15;7.55;;;;;;;24.78;76.88;98115.16;5110759;28;20199;-60
2022/09/27 10:20:05;;;;;;;44.53;27.13;;;;;;;24.73;77.31;98113.97;5110837;28;20224;-54
2022/09/27 10:22:37;;;;;;;8.00;7.47;;;;;;;24.71;78.26;98118.66;5110374;28;20196;-55
2022/09/27 10:25:07;;;;;;;16.02;11.82;;;;;;;24.67;78.98;98096.09;5110590;28;20208;-60
2022/09/27 10:27:40;;;;;;;7.80;7.20;;;;;;;24.71;79.52;98100.91;5109013;28;20222;-59
2022/09/27 10:30:22;;;;;;;11.45;10.40;;;;;;;24.64;79.79;98102.56;5103803;28;20194;-58
2022/09/27 10:32:55;;;;;;;14.70;13.18;;;;;;;24.61;80.52;98106.38;5108507;28;20503;-59
2022/09/27 10:35:35;;;;;;;7.90;7.38;;;;;;;24.56;80.21;98106.06;5105805;28;20222;-60
2022/09/27 10:38:21;;;;;;;8.55;7.85;;;;;;;24.58;81.27;98095.28;5107532;28;20715;-59
2022/09/27 10:40:49;;;;;;;8.48;7.70;;;;;;;24.65;81.53;98098.06;5108545;28;20190;-55
2022/09/27 10:43:25;;;;;;;8.57;7.65;;;;;;;24.65;80.88;98085.63;5109922;28;20281;-55
2022/09/27 10:46:03;;;;;;;8.80;8.10;;;;;;;24.77;80.76;98071.03;5106222;28;20202;-55
2022/09/27 10:48:31;;;;;;;7.40;6.90;;;;;;;24.92;80.72;98069.38;5108362;28;20228;-55
2022/09/27 10:51:00;;;;;;;11.00;7.05;;;;;;;25.09;79.92;98075.47;5108946;28;20197;-55
2022/09/27 10:53:29;;;;;;;8.05;7.45;;;;;;;25.28;79.11;98074.25;5109837;28;20198;-56
2022/09/27 10:55:57;;;;;;;14.00;7.50;;;;;;;25.29;77.38;98063.44;5109776;28;20195;-55
2022/09/27 10:58:28;;;;;;;7.45;6.85;;;;;;;25.21;77.08;98060.81;5109644;28;20588;-54
2022/09/27 11:00:57;;;;;;;6.60;6.05;;;;;;;25.12;76.25;98056.53;5110189;28;20194;-56
2022/09/27 11:03:27;;;;;;;6.75;6.13;;;;;;;25.07;76.54;98056.22;5105801;28;20195;-55
2022/09/27 11:05:58;;;;;;;6.82;6.40;;;;;;;24.98;77.28;98054.59;5108460;28;20652;-55
2022/09/27 11:08:30;;;;;;;10.80;5.68;;;;;;;24.99;76.50;98056.25;5105842;28;20226;-55
2022/09/27 11:11:03;;;;;;;5.90;5.55;;;;;;;25.07;75.85;98055.38;5109237;28;20202;-59
2022/09/27 11:13:31;;;;;;;5.93;5.53;;;;;;;25.11;75.58;98054.88;5109317;28;20559;-60
2022/09/27 11:16:33;;;;;;;6.50;6.13;;;;;;;25.17;75.99;98062.16;5109186;28;20212;-60
2022/09/27 11:19:13;;;;;;;6.22;5.82;;;;;;;25.20;75.95;98055.66;5108612;28;20277;-60
2022/09/27 11:21:52;;;;;;;6.05;5.57;;;;;;;25.16;76.17;98047.25;5109153;28;20208;-59
2022/09/27 11:24:31;;;;;;;7.30;5.82;;;;;;;25.07;76.60;98045.59;5108695;28;20226;-59
2022/09/27 11:27:09;;;;;;;6.75;6.32;;;;;;;25.00;76.10;98046.47;5110408;28;20213;-55
2022/09/27 11:29:51;;;;;;;6.20;5.70;;;;;;;24.90;77.14;98046.63;5111877;28;20221;-54
2022/09/27 11:32:28;;;;;;;6.50;6.07;;;;;;;24.88;76.45;98032.69;5111518;28;20205;-55
2022/09/27 11:35:19;;;;;;;6.28;5.85;;;;;;;24.94;75.06;98040.03;5112181;28;20702;-55
2022/09/27 11:37:57;;;;;;;5.88;5.47;;;;;;;25.08;74.43;98036.63;5109698;28;20186;-55
2022/09/27 11:40:31;;;;;;;6.07;5.72;;;;;;;25.22;74.94;98038.56;5109525;28;20281;-55
2022/09/27 11:43:13;;;;;;;6.25;5.75;;;;;;;25.27;74.24;98028.28;5112600;28;20575;-57